createdAt,value
2018-12-16T00:00:49.559Z,14.10
2018-12-16T00:03:17.653Z,15.03
2018-12-16T00:05:45.250Z,14.93
2018-12-16T00:08:12.863Z,13.53
2018-12-16T00:10:40.663Z,13.23
2018-12-16T00:13:08.065Z,12.90
2018-12-16T00:15:35.879Z,15.07
2018-12-16T00:18:03.568Z,14.50
2018-12-16T00:20:30.972Z,17.03
2018-12-16T00:22:58.752Z,12.67
2018-12-16T00:25:26.164Z,11.80
2018-12-16T00:27:53.950Z,15.77
2018-12-16T00:30:21.635Z,13.87
2018-12-16T00:32:49.231Z,17.17
2018-12-16T00:35:16.643Z,14.70
2018-12-16T00:37:44.395Z,13.77
2018-12-16T00:40:11.803Z,16.27
2018-12-16T00:42:40.005Z,13.90
2018-12-16T00:45:07.692Z,14.30
2018-12-16T00:47:35.094Z,16.63
2018-12-16T00:50:03.653Z,15.97
2018-12-16T00:52:36.429Z,17.73
2018-12-16T00:55:01.485Z,14.70
2018-12-16T00:57:28.883Z,15.03
2018-12-16T00:59:56.339Z,16.70
2018-12-16T01:02:29.259Z,14.70
2018-12-16T01:04:56.968Z,12.53
2018-12-16T01:07:24.400Z,12.87
2018-12-16T01:09:52.416Z,12.53
2018-12-16T01:12:20.084Z,14.43
2018-12-16T01:14:48.820Z,14.07
2018-12-16T01:17:16.417Z,13.33
2018-12-16T01:19:43.844Z,17.70
2018-12-16T01:22:11.251Z,13.17
2018-12-16T01:24:39.355Z,10.83
2018-12-16T01:27:06.856Z,11.33
2018-12-16T01:29:34.267Z,11.67
2018-12-16T01:32:01.766Z,13.37
2018-12-16T01:34:29.320Z,12.03
2018-12-16T01:36:57.620Z,10.90
2018-12-16T01:39:25.087Z,15.77
2018-12-16T01:41:52.523Z,11.73
2018-12-16T01:44:19.927Z,14.37
2018-12-16T01:46:47.343Z,14.63
2018-12-16T01:49:14.859Z,13.47
2018-12-16T01:51:42.267Z,15.00
2018-12-16T01:54:09.667Z,16.07
2018-12-16T01:56:37.268Z,15.73
2018-12-16T01:59:05.459Z,15.40
2018-12-16T02:01:32.911Z,16.00
2018-12-16T02:04:00.655Z,18.67
2018-12-16T02:06:28.060Z,16.57
2018-12-16T02:08:55.463Z,17.23
2018-12-16T02:11:23.019Z,16.80
2018-12-16T02:13:51.323Z,17.73
2018-12-16T02:16:18.920Z,21.60
2018-12-16T02:18:46.614Z,32.67
2018-12-16T02:21:14.408Z,33.47
2018-12-16T02:23:41.820Z,15.77
2018-12-16T02:26:09.247Z,16.00
2018-12-16T02:28:36.659Z,15.23
2018-12-16T02:31:04.731Z,20.47
2018-12-16T02:33:32.275Z,18.70
2018-12-16T02:36:00.370Z,23.43
2018-12-16T02:38:27.773Z,16.60
2018-12-16T02:40:55.271Z,18.00
2018-12-16T02:43:23.273Z,16.10
2018-12-16T02:45:50.754Z,17.30
2018-12-16T02:48:18.264Z,17.33
2018-12-16T02:50:45.807Z,22.90
2018-12-16T02:53:13.275Z,17.93
2018-12-16T02:55:41.027Z,12.80
2018-12-16T02:58:08.428Z,12.90
2018-12-16T03:00:35.830Z,13.43
2018-12-16T03:03:03.380Z,15.03
2018-12-16T03:05:30.875Z,12.93
2018-12-16T03:07:58.324Z,14.63
2018-12-16T03:10:25.763Z,11.20
2018-12-16T03:12:53.795Z,11.77
2018-12-16T03:15:21.790Z,14.13
2018-12-16T03:17:49.204Z,12.53
2018-12-16T03:20:16.621Z,15.67
2018-12-16T03:22:44.357Z,13.23
2018-12-16T03:25:12.145Z,13.20
2018-12-16T03:27:39.552Z,13.13
2018-12-16T03:30:09.602Z,15.77
2018-12-16T03:32:37.191Z,12.37
2018-12-16T03:35:04.705Z,11.93
2018-12-16T03:37:32.109Z,16.17
2018-12-16T03:39:59.760Z,15.90
2018-12-16T03:42:27.628Z,10.60
2018-12-16T03:44:55.322Z,12.13
2018-12-16T03:47:23.184Z,12.60
2018-12-16T03:49:50.885Z,16.83
2018-12-16T03:52:19.840Z,16.00
2018-12-16T03:54:47.371Z,14.70
2018-12-16T03:57:14.799Z,17.03
2018-12-16T03:59:42.212Z,15.73
2018-12-16T04:02:09.845Z,17.67
2018-12-16T04:04:37.248Z,15.10
2018-12-16T04:07:05.442Z,14.27
2018-12-16T04:09:33.032Z,16.57
2018-12-16T04:12:00.437Z,17.40
2018-12-16T04:14:27.841Z,16.47
2018-12-16T04:16:55.405Z,15.97
2018-12-16T04:19:22.807Z,18.60
2018-12-16T04:21:50.226Z,15.20
2018-12-16T04:24:17.945Z,17.33
2018-12-16T04:26:45.336Z,14.90
2018-12-16T04:29:13.729Z,17.93
2018-12-16T04:31:41.265Z,9.70
2018-12-16T04:34:08.676Z,11.77
2018-12-16T04:36:36.068Z,9.27
2018-12-16T04:39:05.585Z,13.60
2018-12-16T04:41:32.990Z,8.63
2018-12-16T04:44:00.998Z,12.20
2018-12-16T04:46:28.514Z,9.37
2018-12-16T04:48:55.990Z,8.63
2018-12-16T04:51:23.482Z,10.40
2018-12-16T04:53:50.997Z,9.10
2018-12-16T04:56:18.393Z,9.87
2018-12-16T04:58:45.792Z,9.13
2018-12-16T05:01:13.616Z,9.63
2018-12-16T05:03:41.007Z,7.73
2018-12-16T05:06:08.686Z,6.97
2018-12-16T05:08:36.296Z,7.63
2018-12-16T05:11:03.811Z,7.67
2018-12-16T05:13:31.208Z,8.33
2018-12-16T05:15:58.973Z,7.60
2018-12-16T05:18:26.400Z,9.67
2018-12-16T05:20:53.785Z,8.37
2018-12-16T05:23:21.337Z,9.70
2018-12-16T05:25:49.035Z,9.50
2018-12-16T05:28:16.467Z,14.43
2018-12-16T05:30:44.223Z,14.30
2018-12-16T05:33:11.697Z,12.90
2018-12-16T05:35:39.583Z,8.20
2018-12-16T05:38:07.209Z,11.07
2018-12-16T05:40:34.615Z,13.03
2018-12-16T05:43:02.051Z,12.10
2018-12-16T05:45:29.579Z,15.97
2018-12-16T05:47:57.039Z,19.03
2018-12-16T05:50:24.608Z,20.93
2018-12-16T05:52:52.286Z,15.10
2018-12-16T05:55:19.790Z,12.40
2018-12-16T05:57:47.685Z,13.67
2018-12-16T06:00:15.432Z,13.07
2018-12-16T06:02:42.836Z,12.67
2018-12-16T06:05:10.234Z,16.80
2018-12-16T06:07:38.032Z,13.47
2018-12-16T06:10:06.154Z,50.80
2018-12-16T06:12:34.447Z,29.30
2018-12-16T06:15:02.552Z,22.37
2018-12-16T06:17:29.942Z,28.17
2018-12-16T06:19:57.357Z,20.13
2018-12-16T06:22:24.921Z,16.83
2018-12-16T06:24:52.727Z,15.37
2018-12-16T06:27:20.129Z,17.07
2018-12-16T06:29:48.084Z,13.67
2018-12-16T06:32:15.565Z,15.53
2018-12-16T06:34:42.980Z,14.97
2018-12-16T06:37:10.676Z,12.17
2018-12-16T06:39:38.476Z,15.63
2018-12-16T06:42:05.883Z,15.97
2018-12-16T06:44:33.660Z,13.70
2018-12-16T06:47:01.092Z,21.93
2018-12-16T06:49:29.060Z,15.10
2018-12-16T06:51:56.952Z,9.73
2018-12-16T06:54:24.368Z,8.40
2018-12-16T06:56:51.777Z,7.90
2018-12-16T06:59:19.328Z,8.33
2018-12-16T07:01:46.736Z,7.70
2018-12-16T07:04:14.136Z,8.30
2018-12-16T07:06:41.899Z,8.90
2018-12-16T07:09:09.297Z,9.50
2018-12-16T07:11:36.706Z,10.57
2018-12-16T07:14:04.135Z,9.53
2018-12-16T07:16:31.540Z,11.50
2018-12-16T07:18:58.946Z,13.40
2018-12-16T07:21:26.551Z,16.47
2018-12-16T07:23:53.952Z,16.63
2018-12-16T07:26:21.364Z,11.90
2018-12-16T07:28:49.118Z,14.90
2018-12-16T07:31:16.516Z,12.73
2018-12-16T07:33:44.680Z,13.17
2018-12-16T07:36:12.417Z,13.43
2018-12-16T07:38:39.815Z,12.10
2018-12-16T07:41:07.398Z,14.43
2018-12-16T07:43:35.110Z,11.33
2018-12-16T07:46:02.578Z,16.03
2018-12-16T07:48:30.143Z,15.27
2018-12-16T07:50:57.896Z,15.53
2018-12-16T07:53:25.295Z,11.47
2018-12-16T07:55:53.415Z,13.43
2018-12-16T07:58:21.152Z,8.83
2018-12-16T08:00:48.683Z,14.07
2018-12-16T08:03:16.260Z,12.73
2018-12-16T08:05:44.043Z,10.67
2018-12-16T08:08:11.459Z,10.10
2018-12-16T08:10:38.864Z,12.30
2018-12-16T08:13:06.570Z,10.20
2018-12-16T08:15:33.973Z,14.27
2018-12-16T08:18:01.880Z,11.00
2018-12-16T08:20:29.498Z,11.27
2018-12-16T08:22:56.953Z,16.73
2018-12-16T08:25:24.996Z,14.63
2018-12-16T08:27:52.735Z,15.17
2018-12-16T08:30:20.222Z,9.20
2018-12-16T08:32:47.705Z,6.27
2018-12-16T08:35:15.256Z,12.07
2018-12-16T08:37:42.666Z,9.33
2018-12-16T08:40:10.846Z,11.80
2018-12-16T08:42:38.281Z,7.07
2018-12-16T08:45:06.422Z,8.93
2018-12-16T08:47:33.876Z,11.17
2018-12-16T08:50:01.436Z,8.17
2018-12-16T08:52:29.744Z,7.87
2018-12-16T08:54:57.427Z,5.47
2018-12-16T08:57:25.025Z,8.30
2018-12-16T08:59:52.816Z,9.97
2018-12-16T09:02:20.279Z,6.60
2018-12-16T09:04:47.920Z,13.10
2018-12-16T09:07:15.787Z,8.00
2018-12-16T09:09:43.553Z,7.13
2018-12-16T09:12:11.317Z,9.43
2018-12-16T09:14:38.743Z,8.57
2018-12-16T09:17:06.127Z,8.47
2018-12-16T09:19:33.723Z,9.07
2018-12-16T09:22:01.123Z,12.50
2018-12-16T09:24:28.516Z,8.97
2018-12-16T09:26:56.258Z,7.87
2018-12-16T09:29:23.661Z,6.87
2018-12-16T09:31:51.069Z,8.33
2018-12-16T09:34:18.502Z,8.07
2018-12-16T09:36:45.914Z,7.70
2018-12-16T09:39:13.320Z,6.83
2018-12-16T09:41:41.099Z,8.63
2018-12-16T09:44:08.504Z,5.90
2018-12-16T09:46:35.903Z,9.47
2018-12-16T09:49:03.607Z,8.73
2018-12-16T09:51:31.288Z,8.53
2018-12-16T09:53:58.695Z,10.83
2018-12-16T09:56:26.251Z,10.30
2018-12-16T09:58:53.691Z,12.57
2018-12-16T10:01:21.463Z,12.47
2018-12-16T10:03:49.039Z,17.17
2018-12-16T10:06:16.447Z,10.13
2018-12-16T10:08:44.578Z,10.37
2018-12-16T10:11:12.194Z,12.27
2018-12-16T10:13:39.665Z,7.77
2018-12-16T10:16:07.138Z,7.37
2018-12-16T10:18:34.919Z,7.10
2018-12-16T10:21:02.520Z,7.00
2018-12-16T10:23:29.979Z,8.10
2018-12-16T10:25:57.658Z,9.67
2018-12-16T10:28:25.078Z,12.67
2018-12-16T10:30:52.557Z,11.13
2018-12-16T10:33:20.163Z,14.77
2018-12-16T10:35:47.860Z,11.10
2018-12-16T10:38:15.259Z,13.43
2018-12-16T10:40:43.045Z,16.70
2018-12-16T10:43:10.640Z,17.07
2018-12-16T10:45:38.051Z,18.53
2018-12-16T10:48:05.817Z,12.90
2018-12-16T10:50:34.161Z,12.53
2018-12-16T10:53:01.567Z,13.70
2018-12-16T10:55:29.111Z,21.03
2018-12-16T10:57:56.527Z,12.80
2018-12-16T11:00:29.832Z,9.40
2018-12-16T11:02:57.254Z,9.53
2018-12-16T11:05:25.276Z,8.20
2018-12-16T11:07:52.853Z,5.53
2018-12-16T11:10:20.252Z,6.57
2018-12-16T11:12:47.768Z,5.83
2018-12-16T11:15:15.441Z,6.30
2018-12-16T11:17:42.913Z,6.30
2018-12-16T11:20:10.386Z,5.90
2018-12-16T11:22:37.990Z,7.20
2018-12-16T11:25:07.656Z,6.97
2018-12-16T11:27:35.255Z,8.43
2018-12-16T11:30:02.960Z,8.40
2018-12-16T11:32:30.447Z,11.07
2018-12-16T11:34:57.852Z,11.50
2018-12-16T11:37:26.532Z,11.67
2018-12-16T11:39:53.941Z,9.40
2018-12-16T11:42:22.040Z,11.87
2018-12-16T11:44:49.520Z,8.40
2018-12-16T11:47:17.330Z,6.43
2018-12-16T11:49:44.828Z,7.27
2018-12-16T11:52:12.492Z,12.33
2018-12-16T11:54:39.956Z,9.33
2018-12-16T11:57:07.949Z,9.03
2018-12-16T11:59:35.552Z,13.73
2018-12-16T12:02:02.969Z,10.60
2018-12-16T12:04:30.474Z,8.20
2018-12-16T12:06:58.061Z,8.10
2018-12-16T12:09:25.482Z,8.13
2018-12-16T12:11:53.589Z,9.93
2018-12-16T12:14:21.157Z,9.87
2018-12-16T12:16:48.563Z,11.47
2018-12-16T12:19:15.985Z,14.43
2018-12-16T12:21:43.520Z,9.13
2018-12-16T12:24:10.925Z,10.87
2018-12-16T12:26:38.331Z,13.93
2018-12-16T12:29:05.808Z,10.43
2018-12-16T12:31:33.204Z,9.80
2018-12-16T12:34:00.612Z,9.33
2018-12-16T12:36:28.522Z,9.20
2018-12-16T12:38:55.926Z,9.63
2018-12-16T12:41:23.338Z,5.90
2018-12-16T12:43:50.926Z,5.97
2018-12-16T12:46:18.337Z,7.73
2018-12-16T12:48:45.742Z,5.97
2018-12-16T12:51:13.403Z,8.57
2018-12-16T12:53:40.820Z,10.57
2018-12-16T12:56:08.223Z,13.13
2018-12-16T12:58:35.649Z,12.33
2018-12-16T13:01:03.187Z,9.87
2018-12-16T13:03:31.084Z,9.20
2018-12-16T13:05:58.668Z,6.37
2018-12-16T13:08:26.178Z,5.60
2018-12-16T13:10:53.583Z,5.83
2018-12-16T13:13:21.821Z,8.53
2018-12-16T13:15:49.506Z,7.53
2018-12-16T13:18:16.948Z,8.67
2018-12-16T13:20:44.468Z,6.67
2018-12-16T13:23:12.444Z,6.80
2018-12-16T13:25:51.828Z,7.40
2018-12-16T13:28:19.235Z,7.03
2018-12-16T13:30:46.640Z,6.70
2018-12-16T13:33:14.213Z,5.53
2018-12-16T13:35:41.640Z,4.07
2018-12-16T13:38:09.025Z,6.27
2018-12-16T13:40:36.676Z,6.77
2018-12-16T13:43:04.140Z,7.50
2018-12-16T13:45:31.663Z,5.33
2018-12-16T13:47:59.084Z,5.33
2018-12-16T13:50:26.504Z,6.43
2018-12-16T13:52:54.507Z,6.37
2018-12-16T13:55:21.978Z,6.40
2018-12-16T13:57:49.841Z,9.13
2018-12-16T14:00:17.308Z,4.77
2018-12-16T14:02:44.818Z,6.40
2018-12-16T14:05:12.226Z,7.10
2018-12-16T14:07:39.624Z,8.63
2018-12-16T14:10:07.279Z,7.00
2018-12-16T14:12:35.290Z,9.97
2018-12-16T14:15:02.931Z,5.70
2018-12-16T14:17:30.743Z,5.73
2018-12-16T14:19:58.147Z,5.30
2018-12-16T14:22:26.976Z,16.27
2018-12-16T14:24:54.673Z,8.77
2018-12-16T14:27:22.289Z,10.60
2018-12-16T14:29:49.893Z,7.67
2018-12-16T14:32:17.326Z,5.70
2018-12-16T14:34:44.729Z,5.53
2018-12-16T14:37:12.719Z,6.87
2018-12-16T14:39:40.411Z,6.63
2018-12-16T14:42:08.088Z,7.30
2018-12-16T14:44:35.487Z,8.33
2018-12-16T14:47:02.922Z,10.47
2018-12-16T14:49:30.914Z,7.53
2018-12-16T14:51:58.504Z,12.33
2018-12-16T14:54:26.016Z,8.63
2018-12-16T14:56:53.696Z,7.23
2018-12-16T14:59:21.104Z,7.27
2018-12-16T15:01:48.765Z,8.13
2018-12-16T15:04:16.168Z,7.70
2018-12-16T15:06:43.592Z,9.97
2018-12-16T15:09:11.184Z,11.80
2018-12-16T15:11:38.652Z,10.17
2018-12-16T15:14:06.054Z,9.03
2018-12-16T15:16:33.736Z,9.43
2018-12-16T15:19:01.148Z,7.30
2018-12-16T15:21:28.556Z,7.87
2018-12-16T15:23:56.305Z,8.17
2018-12-16T15:26:24.192Z,7.90
2018-12-16T15:28:51.623Z,8.57
2018-12-16T15:31:19.194Z,8.07
2018-12-16T15:33:46.628Z,10.37
2018-12-16T15:36:14.056Z,7.17
2018-12-16T15:38:41.888Z,7.50
2018-12-16T15:41:09.302Z,11.07
2018-12-16T15:43:37.169Z,7.00
2018-12-16T15:46:04.614Z,7.90
2018-12-16T15:48:32.798Z,9.43
2018-12-16T15:51:00.223Z,10.37
2018-12-16T15:53:27.836Z,8.13
2018-12-16T15:55:55.484Z,8.50
2018-12-16T15:58:22.967Z,12.10
2018-12-16T16:00:50.416Z,8.33
2018-12-16T16:03:18.128Z,7.80
2018-12-16T16:05:45.528Z,7.13
2018-12-16T16:08:16.426Z,7.10
2018-12-16T16:10:42.397Z,8.17
2018-12-16T16:13:10.710Z,10.40
2018-12-16T16:15:38.351Z,10.03
2018-12-16T16:18:05.866Z,10.43
2018-12-16T16:20:33.263Z,13.53
2018-12-16T16:23:00.801Z,9.97
2018-12-16T16:25:28.208Z,10.50
2018-12-16T16:27:55.611Z,9.80
2018-12-16T16:30:23.082Z,9.50
2018-12-16T16:32:50.479Z,8.57
2018-12-16T16:35:18.372Z,12.80
2018-12-16T16:37:46.179Z,6.73
2018-12-16T16:40:13.627Z,7.57
2018-12-16T16:42:41.083Z,7.10
2018-12-16T16:45:08.812Z,6.97
2018-12-16T16:47:36.199Z,6.67
2018-12-16T16:50:04.206Z,6.50
2018-12-16T16:52:31.728Z,7.73
2018-12-16T16:54:59.137Z,9.50
2018-12-16T16:57:26.609Z,9.80
2018-12-16T16:59:54.187Z,9.07
2018-12-16T17:02:21.599Z,9.50
2018-12-16T17:04:49.048Z,10.90
2018-12-16T17:07:16.659Z,9.93
2018-12-16T17:09:44.094Z,14.50
2018-12-16T17:12:11.487Z,15.03
2018-12-16T17:14:39.029Z,19.83
2018-12-16T17:17:06.607Z,9.03
2018-12-16T17:19:34.015Z,9.03
2018-12-16T17:22:01.848Z,8.27
2018-12-16T17:24:29.250Z,7.63
2018-12-16T17:26:57.050Z,8.40
2018-12-16T17:29:24.897Z,8.37
2018-12-16T17:31:52.368Z,26.63
2018-12-16T17:34:19.771Z,9.93
2018-12-16T17:36:47.281Z,13.53
2018-12-16T17:39:14.698Z,27.37
2018-12-16T17:41:42.559Z,35.23
2018-12-16T17:44:10.110Z,31.50
2018-12-16T17:46:37.523Z,15.93
2018-12-16T17:49:05.207Z,14.60
2018-12-16T17:51:32.955Z,11.10
2018-12-16T17:54:00.365Z,12.00
2018-12-16T17:56:27.842Z,9.90
2018-12-16T17:58:55.289Z,11.63
2018-12-16T18:01:22.829Z,8.23
2018-12-16T18:03:50.274Z,12.03
2018-12-16T18:06:17.886Z,11.17
2018-12-16T18:08:45.420Z,12.30
2018-12-16T18:11:12.920Z,11.73
2018-12-16T18:13:40.469Z,9.77
2018-12-16T18:16:07.941Z,10.80
2018-12-16T18:18:35.345Z,9.43
2018-12-16T18:21:03.027Z,10.50
2018-12-16T18:23:31.136Z,9.70
2018-12-16T18:25:58.570Z,10.40
2018-12-16T18:28:26.169Z,9.87
2018-12-16T18:30:53.655Z,12.30
2018-12-16T18:33:21.408Z,9.50
2018-12-16T18:35:49.127Z,9.60
2018-12-16T18:38:16.724Z,11.73
2018-12-16T18:40:44.131Z,12.13
2018-12-16T18:43:11.587Z,14.77
2018-12-16T18:45:39.019Z,12.37
2018-12-16T18:48:06.502Z,11.83
2018-12-16T18:50:33.983Z,14.20
2018-12-16T18:53:01.467Z,20.17
2018-12-16T18:55:28.873Z,18.80
2018-12-16T18:57:56.628Z,14.47
2018-12-16T19:00:24.151Z,19.13
2018-12-16T19:02:51.867Z,12.83
2018-12-16T19:05:19.817Z,14.17
2018-12-16T19:07:47.240Z,13.03
2018-12-16T19:10:14.647Z,13.47
2018-12-16T19:12:42.320Z,14.03
2018-12-16T19:15:10.243Z,14.47
2018-12-16T19:17:37.656Z,17.57
2018-12-16T19:20:06.437Z,14.87
2018-12-16T19:22:33.852Z,18.03
2018-12-16T19:25:01.755Z,10.17
2018-12-16T19:27:29.495Z,12.03
2018-12-16T19:29:57.050Z,9.73
2018-12-16T19:32:24.464Z,36.40
2018-12-16T19:34:51.936Z,102.43
2018-12-16T19:37:19.347Z,35.77
2018-12-16T19:39:46.749Z,18.53
2018-12-16T19:42:14.441Z,11.73
2018-12-16T19:44:41.863Z,13.47
2018-12-16T19:47:09.359Z,11.97
2018-12-16T19:49:36.803Z,12.00
2018-12-16T19:52:04.433Z,12.37
2018-12-16T19:54:32.210Z,11.67
2018-12-16T19:57:05.120Z,11.90
2018-12-16T19:59:29.942Z,10.03
2018-12-16T20:01:57.407Z,12.67
2018-12-16T20:04:26.815Z,12.27
2018-12-16T20:06:54.207Z,13.17
2018-12-16T20:09:21.613Z,11.60
2018-12-16T20:11:53.265Z,12.80
2018-12-16T20:14:20.770Z,17.87
2018-12-16T20:16:48.365Z,13.33
2018-12-16T20:19:16.327Z,18.17
2018-12-16T20:21:43.735Z,11.80
2018-12-16T20:24:11.206Z,14.57
2018-12-16T20:26:38.891Z,12.23
2018-12-16T20:29:06.419Z,23.13
2018-12-16T20:31:33.833Z,20.63
2018-12-16T20:34:01.367Z,12.83
2018-12-16T20:36:29.245Z,10.77
2018-12-16T20:38:56.695Z,10.83
2018-12-16T20:41:24.488Z,13.40
2018-12-16T20:43:51.989Z,15.43
2018-12-16T20:46:19.400Z,17.47
2018-12-16T20:48:46.931Z,18.20
2018-12-16T20:51:14.343Z,19.67
2018-12-16T20:53:41.885Z,18.80
2018-12-16T20:56:09.513Z,14.53
2018-12-16T20:58:36.914Z,13.20
2018-12-16T21:01:04.931Z,12.10
2018-12-16T21:03:32.487Z,10.97
2018-12-16T21:05:59.895Z,10.20
2018-12-16T21:08:27.378Z,10.43
2018-12-16T21:10:54.859Z,10.83
2018-12-16T21:13:27.952Z,10.43
2018-12-16T21:16:01.346Z,10.97
2018-12-16T21:18:30.424Z,13.10
2018-12-16T21:20:57.972Z,10.00
2018-12-16T21:23:25.558Z,9.23
2018-12-16T21:25:52.963Z,9.87
2018-12-16T21:28:20.359Z,9.13
2018-12-16T21:30:47.927Z,9.13
2018-12-16T21:33:15.332Z,10.63
2018-12-16T21:35:42.738Z,8.83
2018-12-16T21:38:10.173Z,8.80
2018-12-16T21:40:37.583Z,9.50
2018-12-16T21:43:05.078Z,9.33
2018-12-16T21:45:32.565Z,9.93
2018-12-16T21:48:00.754Z,7.67
2018-12-16T21:50:28.452Z,9.67
2018-12-16T21:52:56.045Z,9.47
2018-12-16T21:55:23.456Z,8.90
2018-12-16T21:57:51.457Z,10.53
2018-12-16T22:00:19.042Z,9.23
2018-12-16T22:02:46.640Z,8.17
2018-12-16T22:05:15.281Z,11.37
2018-12-16T22:07:43.373Z,10.60
2018-12-16T22:10:10.781Z,9.40
2018-12-16T22:12:38.185Z,12.00
2018-12-16T22:15:05.833Z,13.10
2018-12-16T22:17:34.163Z,10.87
2018-12-16T22:20:01.576Z,10.60
2018-12-16T22:22:29.006Z,11.00
2018-12-16T22:24:56.776Z,9.53
2018-12-16T22:27:24.184Z,11.60
2018-12-16T22:29:51.773Z,11.03
2018-12-16T22:32:19.184Z,10.97
2018-12-16T22:34:47.401Z,10.03
2018-12-16T22:37:15.103Z,12.97
2018-12-16T22:39:42.561Z,12.93
2018-12-16T22:42:09.980Z,12.93
2018-12-16T22:44:37.569Z,10.60
2018-12-16T22:47:05.360Z,10.17
2018-12-16T22:49:32.900Z,9.60
2018-12-16T22:52:00.764Z,13.03
2018-12-16T22:54:28.176Z,9.60
2018-12-16T22:56:55.788Z,11.13
2018-12-16T22:59:23.256Z,11.83
2018-12-16T23:01:50.716Z,11.13
2018-12-16T23:04:18.180Z,13.00
2018-12-16T23:06:46.508Z,13.60
2018-12-16T23:09:13.957Z,18.53
2018-12-16T23:11:41.493Z,20.00
2018-12-16T23:14:08.962Z,19.20
2018-12-16T23:16:37.940Z,19.77
2018-12-16T23:19:05.460Z,20.17
2018-12-16T23:21:33.037Z,20.30
2018-12-16T23:24:00.439Z,24.07
2018-12-16T23:26:27.920Z,23.07
2018-12-16T23:28:55.494Z,22.33
2018-12-16T23:31:23.577Z,21.80
2018-12-16T23:33:50.983Z,19.90
2018-12-16T23:36:18.572Z,21.67
2018-12-16T23:38:46.312Z,18.33
2018-12-16T23:41:14.599Z,17.07
2018-12-16T23:43:42.177Z,16.87
2018-12-16T23:46:09.587Z,15.57
2018-12-16T23:48:37.081Z,13.97
2018-12-16T23:51:04.670Z,13.10
2018-12-16T23:53:32.088Z,13.93
2018-12-16T23:56:00.188Z,13.87
2018-12-16T23:58:27.615Z,14.20
